sensor_id;sensor_type;location;lat;lon;timestamp;P1;durP1;ratioP1;P2;durP2;ratioP2
24567;SDS011;12731;52.182;8.716;2023-07-13T00:00:29;4.90;;;2.03;;
24567;SDS011;12731;52.182;8.716;2023-07-13T00:02:58;4.47;;;1.80;;
24567;SDS011;12731;52.182;8.716;2023-07-13T00:05:24;5.45;;;2.35;;
24567;SDS011;12731;52.182;8.716;2023-07-13T00:07:51;5.30;;;2.42;;
24567;SDS011;12731;52.182;8.716;2023-07-13T00:10:18;4.63;;;2.30;;
24567;SDS011;12731;52.182;8.716;2023-07-13T00:12:44;4.28;;;2.10;;
24567;SDS011;12731;52.182;8.716;2023-07-13T00:15:13;6.50;;;2.17;;
24567;SDS011;12731;52.182;8.716;2023-07-13T00:17:49;5.97;;;2.03;;
24567;SDS011;12731;52.182;8.716;2023-07-13T00:20:16;4.78;;;1.90;;
24567;SDS011;12731;52.182;8.716;2023-07-13T00:22:43;4.30;;;1.73;;
24567;SDS011;12731;52.182;8.716;2023-07-13T00:25:10;2.95;;;1.80;;
24567;SDS011;12731;52.182;8.716;2023-07-13T00:27:37;3.53;;;1.70;;
24567;SDS011;12731;52.182;8.716;2023-07-13T00:30:04;4.30;;;2.00;;
24567;SDS011;12731;52.182;8.716;2023-07-13T00:32:31;6.05;;;1.92;;
24567;SDS011;12731;52.182;8.716;2023-07-13T00:34:58;3.83;;;2.00;;
24567;SDS011;12731;52.182;8.716;2023-07-13T00:37:26;5.00;;;2.00;;
24567;SDS011;12731;52.182;8.716;2023-07-13T00:39:52;5.75;;;2.50;;
24567;SDS011;12731;52.182;8.716;2023-07-13T00:42:19;2.78;;;1.80;;
24567;SDS011;12731;52.182;8.716;2023-07-13T00:45:02;7.65;;;2.40;;
24567;SDS011;12731;52.182;8.716;2023-07-13T00:47:33;5.43;;;2.15;;
24567;SDS011;12731;52.182;8.716;2023-07-13T00:50:00;4.28;;;2.10;;
24567;SDS011;12731;52.182;8.716;2023-07-13T00:52:26;2.72;;;1.98;;
24567;SDS011;12731;52.182;8.716;2023-07-13T00:54:54;5.40;;;2.00;;
24567;SDS011;12731;52.182;8.716;2023-07-13T00:57:21;4.10;;;1.98;;
24567;SDS011;12731;52.182;8.716;2023-07-13T00:59:48;2.75;;;2.10;;
24567;SDS011;12731;52.182;8.716;2023-07-13T01:02:17;6.53;;;1.90;;
24567;SDS011;12731;52.182;8.716;2023-07-13T01:04:44;4.22;;;2.20;;
24567;SDS011;12731;52.182;8.716;2023-07-13T01:07:10;4.90;;;2.22;;
24567;SDS011;12731;52.182;8.716;2023-07-13T01:09:38;5.55;;;2.33;;
24567;SDS011;12731;52.182;8.716;2023-07-13T01:12:04;5.13;;;2.13;;
24567;SDS011;12731;52.182;8.716;2023-07-13T01:14:31;6.43;;;2.20;;
24567;SDS011;12731;52.182;8.716;2023-07-13T01:16:58;3.72;;;1.90;;
24567;SDS011;12731;52.182;8.716;2023-07-13T01:22:06;5.47;;;2.00;;
24567;SDS011;12731;52.182;8.716;2023-07-13T01:24:40;4.22;;;2.10;;
24567;SDS011;12731;52.182;8.716;2023-07-13T01:27:09;3.80;;;2.10;;
24567;SDS011;12731;52.182;8.716;2023-07-13T01:29:38;6.88;;;2.03;;
24567;SDS011;12731;52.182;8.716;2023-07-13T01:32:12;4.22;;;2.25;;
24567;SDS011;12731;52.182;8.716;2023-07-13T01:34:40;7.32;;;2.53;;
24567;SDS011;12731;52.182;8.716;2023-07-13T01:37:10;5.18;;;2.15;;
24567;SDS011;12731;52.182;8.716;2023-07-13T01:39:37;4.47;;;1.85;;
24567;SDS011;12731;52.182;8.716;2023-07-13T01:42:04;7.65;;;2.58;;
24567;SDS011;12731;52.182;8.716;2023-07-13T01:44:31;4.65;;;2.08;;
24567;SDS011;12731;52.182;8.716;2023-07-13T01:46:57;7.20;;;2.30;;
24567;SDS011;12731;52.182;8.716;2023-07-13T01:49:24;5.18;;;2.10;;
24567;SDS011;12731;52.182;8.716;2023-07-13T01:51:50;5.82;;;2.40;;
24567;SDS011;12731;52.182;8.716;2023-07-13T01:54:17;5.60;;;2.20;;
24567;SDS011;12731;52.182;8.716;2023-07-13T01:56:43;6.90;;;1.92;;
24567;SDS011;12731;52.182;8.716;2023-07-13T01:59:10;6.85;;;2.50;;
24567;SDS011;12731;52.182;8.716;2023-07-13T02:01:36;8.68;;;2.30;;
24567;SDS011;12731;52.182;8.716;2023-07-13T02:04:03;8.20;;;2.38;;
24567;SDS011;12731;52.182;8.716;2023-07-13T02:06:30;5.45;;;2.13;;
24567;SDS011;12731;52.182;8.716;2023-07-13T02:08:57;5.82;;;2.30;;
24567;SDS011;12731;52.182;8.716;2023-07-13T02:11:24;6.40;;;2.03;;
24567;SDS011;12731;52.182;8.716;2023-07-13T02:13:51;5.50;;;1.88;;
24567;SDS011;12731;52.182;8.716;2023-07-13T02:16:18;4.53;;;2.10;;
24567;SDS011;12731;52.182;8.716;2023-07-13T02:18:44;6.25;;;2.33;;
24567;SDS011;12731;52.182;8.716;2023-07-13T02:21:11;6.63;;;2.30;;
24567;SDS011;12731;52.182;8.716;2023-07-13T02:23:37;3.70;;;1.90;;
24567;SDS011;12731;52.182;8.716;2023-07-13T02:26:04;4.97;;;2.13;;
24567;SDS011;12731;52.182;8.716;2023-07-13T02:28:30;5.40;;;2.30;;
24567;SDS011;12731;52.182;8.716;2023-07-13T02:31:03;5.97;;;2.33;;
24567;SDS011;12731;52.182;8.716;2023-07-13T02:33:37;3.78;;;1.73;;
24567;SDS011;12731;52.182;8.716;2023-07-13T02:36:04;5.35;;;1.83;;
24567;SDS011;12731;52.182;8.716;2023-07-13T02:38:32;3.70;;;1.90;;
24567;SDS011;12731;52.182;8.716;2023-07-13T02:41:00;5.78;;;2.15;;
24567;SDS011;12731;52.182;8.716;2023-07-13T02:43:27;6.18;;;2.17;;
24567;SDS011;12731;52.182;8.716;2023-07-13T02:45:54;4.80;;;2.35;;
24567;SDS011;12731;52.182;8.716;2023-07-13T02:48:20;5.10;;;2.08;;
24567;SDS011;12731;52.182;8.716;2023-07-13T02:50:47;5.57;;;2.13;;
24567;SDS011;12731;52.182;8.716;2023-07-13T02:53:13;5.68;;;2.20;;
24567;SDS011;12731;52.182;8.716;2023-07-13T02:55:40;4.88;;;2.30;;
24567;SDS011;12731;52.182;8.716;2023-07-13T02:58:07;5.78;;;2.30;;
24567;SDS011;12731;52.182;8.716;2023-07-13T03:00:33;8.20;;;2.70;;
24567;SDS011;12731;52.182;8.716;2023-07-13T03:03:00;7.00;;;2.50;;
24567;SDS011;12731;52.182;8.716;2023-07-13T03:05:27;4.82;;;2.20;;
24567;SDS011;12731;52.182;8.716;2023-07-13T03:07:53;6.10;;;2.40;;
24567;SDS011;12731;52.182;8.716;2023-07-13T03:10:20;9.43;;;2.58;;
24567;SDS011;12731;52.182;8.716;2023-07-13T03:12:46;8.15;;;3.05;;
24567;SDS011;12731;52.182;8.716;2023-07-13T03:15:12;6.05;;;3.30;;
24567;SDS011;12731;52.182;8.716;2023-07-13T03:17:39;5.40;;;2.45;;
24567;SDS011;12731;52.182;8.716;2023-07-13T03:20:06;7.75;;;2.75;;
24567;SDS011;12731;52.182;8.716;2023-07-13T03:22:33;5.78;;;2.70;;
24567;SDS011;12731;52.182;8.716;2023-07-13T03:24:59;5.32;;;3.05;;
24567;SDS011;12731;52.182;8.716;2023-07-13T03:27:26;7.20;;;2.60;;
24567;SDS011;12731;52.182;8.716;2023-07-13T03:29:53;6.25;;;2.70;;
24567;SDS011;12731;52.182;8.716;2023-07-13T03:32:19;7.28;;;3.00;;
24567;SDS011;12731;52.182;8.716;2023-07-13T03:34:45;6.55;;;2.85;;
24567;SDS011;12731;52.182;8.716;2023-07-13T03:37:12;8.10;;;2.85;;
24567;SDS011;12731;52.182;8.716;2023-07-13T03:39:38;7.60;;;2.72;;
24567;SDS011;12731;52.182;8.716;2023-07-13T03:42:05;7.60;;;2.92;;
24567;SDS011;12731;52.182;8.716;2023-07-13T03:44:32;6.80;;;2.67;;
24567;SDS011;12731;52.182;8.716;2023-07-13T03:46:58;7.10;;;2.72;;
24567;SDS011;12731;52.182;8.716;2023-07-13T03:49:25;7.18;;;2.92;;
24567;SDS011;12731;52.182;8.716;2023-07-13T03:51:51;5.85;;;2.60;;
24567;SDS011;12731;52.182;8.716;2023-07-13T03:54:19;5.53;;;2.67;;
24567;SDS011;12731;52.182;8.716;2023-07-13T03:56:46;8.10;;;2.97;;
24567;SDS011;12731;52.182;8.716;2023-07-13T03:59:12;6.18;;;2.80;;
24567;SDS011;12731;52.182;8.716;2023-07-13T04:01:39;7.43;;;3.00;;
24567;SDS011;12731;52.182;8.716;2023-07-13T04:04:05;5.72;;;2.78;;
24567;SDS011;12731;52.182;8.716;2023-07-13T04:06:32;6.63;;;2.85;;
24567;SDS011;12731;52.182;8.716;2023-07-13T04:08:59;7.13;;;2.85;;
24567;SDS011;12731;52.182;8.716;2023-07-13T04:11:29;6.60;;;2.42;;
24567;SDS011;12731;52.182;8.716;2023-07-13T04:13:58;7.28;;;2.85;;
24567;SDS011;12731;52.182;8.716;2023-07-13T04:16:24;6.25;;;2.80;;
24567;SDS011;12731;52.182;8.716;2023-07-13T04:18:51;6.28;;;2.42;;
24567;SDS011;12731;52.182;8.716;2023-07-13T04:21:21;8.77;;;2.88;;
24567;SDS011;12731;52.182;8.716;2023-07-13T04:23:48;5.82;;;2.45;;
24567;SDS011;12731;52.182;8.716;2023-07-13T04:26:14;4.70;;;2.63;;
24567;SDS011;12731;52.182;8.716;2023-07-13T04:28:41;10.18;;;3.00;;
24567;SDS011;12731;52.182;8.716;2023-07-13T04:31:07;5.57;;;2.75;;
24567;SDS011;12731;52.182;8.716;2023-07-13T04:33:34;5.97;;;2.70;;
24567;SDS011;12731;52.182;8.716;2023-07-13T04:36:00;9.30;;;3.03;;
24567;SDS011;12731;52.182;8.716;2023-07-13T04:38:28;6.07;;;2.88;;
24567;SDS011;12731;52.182;8.716;2023-07-13T04:40:57;8.02;;;2.70;;
24567;SDS011;12731;52.182;8.716;2023-07-13T04:43:27;6.78;;;3.00;;
24567;SDS011;12731;52.182;8.716;2023-07-13T04:45:54;8.35;;;3.17;;
24567;SDS011;12731;52.182;8.716;2023-07-13T04:48:21;8.55;;;3.13;;
24567;SDS011;12731;52.182;8.716;2023-07-13T04:50:54;10.20;;;3.40;;
24567;SDS011;12731;52.182;8.716;2023-07-13T04:53:21;7.75;;;3.15;;
24567;SDS011;12731;52.182;8.716;2023-07-13T04:55:48;8.60;;;3.53;;
24567;SDS011;12731;52.182;8.716;2023-07-13T04:58:15;8.45;;;3.58;;
24567;SDS011;12731;52.182;8.716;2023-07-13T05:00:41;10.90;;;3.42;;
24567;SDS011;12731;52.182;8.716;2023-07-13T05:03:07;10.50;;;3.50;;
24567;SDS011;12731;52.182;8.716;2023-07-13T05:05:34;10.50;;;3.33;;
24567;SDS011;12731;52.182;8.716;2023-07-13T05:08:01;7.78;;;2.85;;
24567;SDS011;12731;52.182;8.716;2023-07-13T05:10:28;9.32;;;2.75;;
24567;SDS011;12731;52.182;8.716;2023-07-13T05:12:54;6.50;;;2.78;;
24567;SDS011;12731;52.182;8.716;2023-07-13T05:15:21;10.85;;;2.95;;
24567;SDS011;12731;52.182;8.716;2023-07-13T05:17:48;6.70;;;2.38;;
24567;SDS011;12731;52.182;8.716;2023-07-13T05:20:15;10.57;;;2.65;;
24567;SDS011;12731;52.182;8.716;2023-07-13T05:22:42;7.13;;;2.40;;
24567;SDS011;12731;52.182;8.716;2023-07-13T05:25:09;8.73;;;2.67;;
24567;SDS011;12731;52.182;8.716;2023-07-13T05:27:36;7.50;;;2.30;;
24567;SDS011;12731;52.182;8.716;2023-07-13T05:30:03;6.72;;;2.28;;
24567;SDS011;12731;52.182;8.716;2023-07-13T05:32:29;4.63;;;1.90;;
24567;SDS011;12731;52.182;8.716;2023-07-13T05:34:56;5.90;;;2.10;;
24567;SDS011;12731;52.182;8.716;2023-07-13T05:37:22;10.35;;;2.42;;
24567;SDS011;12731;52.182;8.716;2023-07-13T05:39:49;7.25;;;2.22;;
24567;SDS011;12731;52.182;8.716;2023-07-13T05:42:15;7.18;;;1.95;;
24567;SDS011;12731;52.182;8.716;2023-07-13T05:44:42;5.25;;;2.10;;
24567;SDS011;12731;52.182;8.716;2023-07-13T05:47:08;8.52;;;2.00;;
24567;SDS011;12731;52.182;8.716;2023-07-13T05:49:35;8.73;;;2.30;;
24567;SDS011;12731;52.182;8.716;2023-07-13T05:52:01;4.85;;;1.90;;
24567;SDS011;12731;52.182;8.716;2023-07-13T05:54:28;7.90;;;2.42;;
24567;SDS011;12731;52.182;8.716;2023-07-13T05:56:54;5.50;;;2.05;;
24567;SDS011;12731;52.182;8.716;2023-07-13T05:59:21;5.65;;;2.00;;
24567;SDS011;12731;52.182;8.716;2023-07-13T06:01:47;9.55;;;2.03;;
24567;SDS011;12731;52.182;8.716;2023-07-13T06:04:14;5.88;;;2.13;;
24567;SDS011;12731;52.182;8.716;2023-07-13T06:06:41;7.75;;;2.38;;
24567;SDS011;12731;52.182;8.716;2023-07-13T06:09:07;8.48;;;2.00;;
24567;SDS011;12731;52.182;8.716;2023-07-13T06:11:34;6.72;;;2.10;;
24567;SDS011;12731;52.182;8.716;2023-07-13T06:14:01;7.00;;;2.03;;
24567;SDS011;12731;52.182;8.716;2023-07-13T06:16:27;5.35;;;2.08;;
24567;SDS011;12731;52.182;8.716;2023-07-13T06:18:54;9.15;;;2.28;;
24567;SDS011;12731;52.182;8.716;2023-07-13T06:21:21;5.50;;;1.85;;
24567;SDS011;12731;52.182;8.716;2023-07-13T06:23:49;4.57;;;1.90;;
24567;SDS011;12731;52.182;8.716;2023-07-13T06:26:17;6.25;;;2.22;;
24567;SDS011;12731;52.182;8.716;2023-07-13T06:28:44;8.95;;;2.22;;
24567;SDS011;12731;52.182;8.716;2023-07-13T06:31:11;8.98;;;2.80;;
24567;SDS011;12731;52.182;8.716;2023-07-13T06:33:39;8.63;;;2.33;;
24567;SDS011;12731;52.182;8.716;2023-07-13T06:36:06;5.65;;;2.08;;
24567;SDS011;12731;52.182;8.716;2023-07-13T06:38:33;7.45;;;2.17;;
24567;SDS011;12731;52.182;8.716;2023-07-13T06:41:00;7.57;;;2.30;;
24567;SDS011;12731;52.182;8.716;2023-07-13T06:43:27;7.43;;;2.33;;
24567;SDS011;12731;52.182;8.716;2023-07-13T06:45:54;7.10;;;2.35;;
24567;SDS011;12731;52.182;8.716;2023-07-13T06:48:21;7.65;;;2.35;;
24567;SDS011;12731;52.182;8.716;2023-07-13T06:50:48;7.47;;;2.50;;
24567;SDS011;12731;52.182;8.716;2023-07-13T06:53:17;11.18;;;2.55;;
24567;SDS011;12731;52.182;8.716;2023-07-13T06:55:44;8.25;;;2.72;;
24567;SDS011;12731;52.182;8.716;2023-07-13T06:58:11;10.27;;;2.60;;
24567;SDS011;12731;52.182;8.716;2023-07-13T07:00:38;6.22;;;2.50;;
24567;SDS011;12731;52.182;8.716;2023-07-13T07:03:06;8.13;;;2.47;;
24567;SDS011;12731;52.182;8.716;2023-07-13T07:05:33;7.13;;;2.45;;
24567;SDS011;12731;52.182;8.716;2023-07-13T07:07:59;9.20;;;2.60;;
24567;SDS011;12731;52.182;8.716;2023-07-13T07:10:26;8.77;;;2.65;;
24567;SDS011;12731;52.182;8.716;2023-07-13T07:12:53;11.20;;;2.47;;
24567;SDS011;12731;52.182;8.716;2023-07-13T07:15:19;11.65;;;2.83;;
24567;SDS011;12731;52.182;8.716;2023-07-13T07:17:45;10.32;;;2.50;;
24567;SDS011;12731;52.182;8.716;2023-07-13T07:20:12;8.80;;;2.90;;
24567;SDS011;12731;52.182;8.716;2023-07-13T07:22:39;7.13;;;2.60;;
24567;SDS011;12731;52.182;8.716;2023-07-13T07:25:05;10.30;;;2.60;;
24567;SDS011;12731;52.182;8.716;2023-07-13T07:27:32;9.93;;;2.60;;
24567;SDS011;12731;52.182;8.716;2023-07-13T07:30:02;8.48;;;2.67;;
24567;SDS011;12731;52.182;8.716;2023-07-13T07:32:32;7.03;;;2.97;;
24567;SDS011;12731;52.182;8.716;2023-07-13T07:35:01;9.95;;;2.53;;
24567;SDS011;12731;52.182;8.716;2023-07-13T07:37:27;8.43;;;2.50;;
24567;SDS011;12731;52.182;8.716;2023-07-13T07:39:57;5.60;;;2.33;;
24567;SDS011;12731;52.182;8.716;2023-07-13T07:42:26;7.93;;;2.58;;
24567;SDS011;12731;52.182;8.716;2023-07-13T07:44:53;5.15;;;2.28;;
24567;SDS011;12731;52.182;8.716;2023-07-13T07:47:19;6.93;;;2.38;;
24567;SDS011;12731;52.182;8.716;2023-07-13T07:49:46;8.70;;;2.55;;
24567;SDS011;12731;52.182;8.716;2023-07-13T07:52:12;9.38;;;2.60;;
24567;SDS011;12731;52.182;8.716;2023-07-13T07:54:39;6.82;;;2.40;;
24567;SDS011;12731;52.182;8.716;2023-07-13T07:57:08;9.43;;;2.67;;
24567;SDS011;12731;52.182;8.716;2023-07-13T07:59:38;10.77;;;2.55;;
24567;SDS011;12731;52.182;8.716;2023-07-13T08:02:08;8.68;;;2.60;;
24567;SDS011;12731;52.182;8.716;2023-07-13T08:04:56;9.48;;;2.42;;
24567;SDS011;12731;52.182;8.716;2023-07-13T08:07:25;7.15;;;2.38;;
24567;SDS011;12731;52.182;8.716;2023-07-13T08:09:52;6.32;;;2.25;;
24567;SDS011;12731;52.182;8.716;2023-07-13T08:12:19;8.90;;;2.35;;
24567;SDS011;12731;52.182;8.716;2023-07-13T08:14:51;11.45;;;2.35;;
24567;SDS011;12731;52.182;8.716;2023-07-13T08:17:24;10.07;;;2.67;;
24567;SDS011;12731;52.182;8.716;2023-07-13T08:19:51;8.30;;;2.35;;
24567;SDS011;12731;52.182;8.716;2023-07-13T08:22:17;7.25;;;2.17;;
24567;SDS011;12731;52.182;8.716;2023-07-13T08:24:44;7.32;;;2.72;;
24567;SDS011;12731;52.182;8.716;2023-07-13T08:27:11;5.18;;;2.00;;
24567;SDS011;12731;52.182;8.716;2023-07-13T08:29:38;7.07;;;2.45;;
24567;SDS011;12731;52.182;8.716;2023-07-13T08:32:05;5.80;;;2.03;;
24567;SDS011;12731;52.182;8.716;2023-07-13T08:34:35;7.13;;;1.95;;
24567;SDS011;12731;52.182;8.716;2023-07-13T08:37:02;5.72;;;2.10;;
24567;SDS011;12731;52.182;8.716;2023-07-13T08:39:32;7.53;;;2.05;;
24567;SDS011;12731;52.182;8.716;2023-07-13T08:42:07;7.25;;;2.47;;
24567;SDS011;12731;52.182;8.716;2023-07-13T08:47:32;5.55;;;1.73;;
24567;SDS011;12731;52.182;8.716;2023-07-13T08:49:59;7.88;;;2.13;;
24567;SDS011;12731;52.182;8.716;2023-07-13T08:52:37;6.35;;;1.95;;
24567;SDS011;12731;52.182;8.716;2023-07-13T08:55:09;6.18;;;2.00;;
24567;SDS011;12731;52.182;8.716;2023-07-13T08:57:43;3.60;;;1.73;;
24567;SDS011;12731;52.182;8.716;2023-07-13T09:00:12;6.20;;;1.60;;
24567;SDS011;12731;52.182;8.716;2023-07-13T09:02:42;6.32;;;1.73;;
24567;SDS011;12731;52.182;8.716;2023-07-13T09:05:26;6.15;;;2.00;;
24567;SDS011;12731;52.182;8.716;2023-07-13T09:08:44;5.25;;;2.20;;
24567;SDS011;12731;52.182;8.716;2023-07-13T09:10:51;6.07;;;2.05;;
24567;SDS011;12731;52.182;8.716;2023-07-13T09:13:28;4.05;;;1.80;;
24567;SDS011;12731;52.182;8.716;2023-07-13T09:15:59;5.22;;;1.90;;
24567;SDS011;12731;52.182;8.716;2023-07-13T09:21:03;4.28;;;1.63;;
24567;SDS011;12731;52.182;8.716;2023-07-13T09:23:34;5.68;;;1.55;;
24567;SDS011;12731;52.182;8.716;2023-07-13T09:26:07;5.05;;;1.70;;
24567;SDS011;12731;52.182;8.716;2023-07-13T09:28:47;4.63;;;1.75;;
24567;SDS011;12731;52.182;8.716;2023-07-13T09:31:32;4.80;;;1.48;;
24567;SDS011;12731;52.182;8.716;2023-07-13T09:34:01;3.35;;;1.67;;
24567;SDS011;12731;52.182;8.716;2023-07-13T09:36:29;3.17;;;1.33;;
24567;SDS011;12731;52.182;8.716;2023-07-13T09:39:21;4.00;;;1.42;;
24567;SDS011;12731;52.182;8.716;2023-07-13T09:41:58;3.83;;;1.50;;
24567;SDS011;12731;52.182;8.716;2023-07-13T09:44:34;4.40;;;1.60;;
24567;SDS011;12731;52.182;8.716;2023-07-13T09:47:02;4.65;;;1.50;;
24567;SDS011;12731;52.182;8.716;2023-07-13T09:49:32;4.22;;;1.40;;
24567;SDS011;12731;52.182;8.716;2023-07-13T09:52:03;3.60;;;1.42;;
24567;SDS011;12731;52.182;8.716;2023-07-13T09:54:33;3.13;;;1.58;;
24567;SDS011;12731;52.182;8.716;2023-07-13T09:57:01;4.90;;;1.83;;
24567;SDS011;12731;52.182;8.716;2023-07-13T09:59:33;3.10;;;1.20;;
24567;SDS011;12731;52.182;8.716;2023-07-13T10:02:00;5.22;;;1.70;;
24567;SDS011;12731;52.182;8.716;2023-07-13T10:04:31;4.57;;;1.67;;
24567;SDS011;12731;52.182;8.716;2023-07-13T10:09:51;5.80;;;1.30;;
24567;SDS011;12731;52.182;8.716;2023-07-13T10:12:19;3.50;;;1.45;;
24567;SDS011;12731;52.182;8.716;2023-07-13T10:14:47;4.82;;;1.67;;
24567;SDS011;12731;52.182;8.716;2023-07-13T10:17:14;3.95;;;1.60;;
24567;SDS011;12731;52.182;8.716;2023-07-13T10:19:51;5.10;;;1.70;;
24567;SDS011;12731;52.182;8.716;2023-07-13T10:24:53;5.03;;;1.83;;
24567;SDS011;12731;52.182;8.716;2023-07-13T10:27:34;4.85;;;1.58;;
24567;SDS011;12731;52.182;8.716;2023-07-13T10:30:21;2.95;;;1.58;;
24567;SDS011;12731;52.182;8.716;2023-07-13T10:32:51;5.25;;;1.63;;
24567;SDS011;12731;52.182;8.716;2023-07-13T10:35:19;5.13;;;1.83;;
24567;SDS011;12731;52.182;8.716;2023-07-13T10:37:48;2.72;;;1.50;;
24567;SDS011;12731;52.182;8.716;2023-07-13T10:40:23;2.83;;;1.27;;
24567;SDS011;12731;52.182;8.716;2023-07-13T10:42:54;3.80;;;1.60;;
24567;SDS011;12731;52.182;8.716;2023-07-13T10:45:23;3.88;;;1.83;;
24567;SDS011;12731;52.182;8.716;2023-07-13T10:47:50;6.80;;;1.85;;
24567;SDS011;12731;52.182;8.716;2023-07-13T10:50:20;5.20;;;1.90;;
24567;SDS011;12731;52.182;8.716;2023-07-13T10:52:54;3.60;;;1.58;;
24567;SDS011;12731;52.182;8.716;2023-07-13T10:55:38;2.58;;;1.38;;
24567;SDS011;12731;52.182;8.716;2023-07-13T11:01:04;6.30;;;1.65;;
24567;SDS011;12731;52.182;8.716;2023-07-13T11:03:37;5.43;;;1.80;;
24567;SDS011;12731;52.182;8.716;2023-07-13T11:06:18;4.10;;;1.73;;
24567;SDS011;12731;52.182;8.716;2023-07-13T11:08:56;3.40;;;1.67;;
24567;SDS011;12731;52.182;8.716;2023-07-13T11:18:52;5.15;;;1.75;;
24567;SDS011;12731;52.182;8.716;2023-07-13T11:21:34;2.85;;;1.60;;
24567;SDS011;12731;52.182;8.716;2023-07-13T11:24:02;3.88;;;1.60;;
24567;SDS011;12731;52.182;8.716;2023-07-13T11:26:37;4.90;;;1.70;;
24567;SDS011;12731;52.182;8.716;2023-07-13T11:31:40;7.07;;;2.13;;
24567;SDS011;12731;52.182;8.716;2023-07-13T11:34:13;6.22;;;1.92;;
24567;SDS011;12731;52.182;8.716;2023-07-13T11:36:42;6.07;;;1.85;;
24567;SDS011;12731;52.182;8.716;2023-07-13T11:39:17;3.20;;;1.63;;
24567;SDS011;12731;52.182;8.716;2023-07-13T11:41:49;6.05;;;2.50;;
24567;SDS011;12731;52.182;8.716;2023-07-13T11:44:18;6.45;;;2.20;;
24567;SDS011;12731;52.182;8.716;2023-07-13T11:46:47;5.53;;;2.08;;
24567;SDS011;12731;52.182;8.716;2023-07-13T11:49:21;7.50;;;2.30;;
24567;SDS011;12731;52.182;8.716;2023-07-13T11:51:50;4.50;;;2.10;;
24567;SDS011;12731;52.182;8.716;2023-07-13T11:54:24;5.05;;;1.80;;
24567;SDS011;12731;52.182;8.716;2023-07-13T11:56:54;4.30;;;1.92;;
24567;SDS011;12731;52.182;8.716;2023-07-13T11:59:21;4.30;;;1.60;;
24567;SDS011;12731;52.182;8.716;2023-07-13T12:01:50;5.25;;;1.80;;
24567;SDS011;12731;52.182;8.716;2023-07-13T12:06:54;4.30;;;2.05;;
24567;SDS011;12731;52.182;8.716;2023-07-13T12:09:22;6.28;;;2.15;;
24567;SDS011;12731;52.182;8.716;2023-07-13T12:11:51;6.18;;;2.13;;
24567;SDS011;12731;52.182;8.716;2023-07-13T12:14:18;6.65;;;2.33;;
24567;SDS011;12731;52.182;8.716;2023-07-13T12:16:45;4.97;;;2.20;;
24567;SDS011;12731;52.182;8.716;2023-07-13T12:19:31;7.55;;;2.25;;
24567;SDS011;12731;52.182;8.716;2023-07-13T12:21:58;6.93;;;3.20;;
24567;SDS011;12731;52.182;8.716;2023-07-13T12:24:25;6.57;;;2.90;;
24567;SDS011;12731;52.182;8.716;2023-07-13T12:27:00;11.75;;;3.03;;
24567;SDS011;12731;52.182;8.716;2023-07-13T12:29:28;5.03;;;2.65;;
24567;SDS011;12731;52.182;8.716;2023-07-13T12:31:55;5.05;;;2.92;;
24567;SDS011;12731;52.182;8.716;2023-07-13T12:34:23;4.13;;;2.40;;
24567;SDS011;12731;52.182;8.716;2023-07-13T12:36:51;8.57;;;2.53;;
24567;SDS011;12731;52.182;8.716;2023-07-13T12:39:33;5.68;;;2.53;;
24567;SDS011;12731;52.182;8.716;2023-07-13T12:42:17;4.95;;;2.42;;
24567;SDS011;12731;52.182;8.716;2023-07-13T12:44:46;7.97;;;2.35;;
24567;SDS011;12731;52.182;8.716;2023-07-13T12:47:14;7.47;;;2.33;;
24567;SDS011;12731;52.182;8.716;2023-07-13T12:49:43;6.40;;;2.60;;
24567;SDS011;12731;52.182;8.716;2023-07-13T12:52:15;7.45;;;2.97;;
24567;SDS011;12731;52.182;8.716;2023-07-13T12:54:52;5.53;;;2.47;;
24567;SDS011;12731;52.182;8.716;2023-07-13T12:57:32;6.82;;;2.30;;
24567;SDS011;12731;52.182;8.716;2023-07-13T12:59:58;4.57;;;2.20;;
24567;SDS011;12731;52.182;8.716;2023-07-13T13:04:53;6.38;;;2.30;;
24567;SDS011;12731;52.182;8.716;2023-07-13T13:07:22;5.13;;;1.90;;
24567;SDS011;12731;52.182;8.716;2023-07-13T13:09:49;3.58;;;1.77;;
24567;SDS011;12731;52.182;8.716;2023-07-13T13:12:16;3.67;;;1.50;;
24567;SDS011;12731;52.182;8.716;2023-07-13T13:14:43;3.28;;;1.77;;
24567;SDS011;12731;52.182;8.716;2023-07-13T13:17:16;3.78;;;1.60;;
24567;SDS011;12731;52.182;8.716;2023-07-13T13:19:50;2.60;;;1.30;;
24567;SDS011;12731;52.182;8.716;2023-07-13T13:22:20;5.53;;;1.60;;
24567;SDS011;12731;52.182;8.716;2023-07-13T13:24:47;4.03;;;1.60;;
24567;SDS011;12731;52.182;8.716;2023-07-13T13:27:15;2.97;;;1.55;;
24567;SDS011;12731;52.182;8.716;2023-07-13T13:29:43;2.55;;;1.42;;
24567;SDS011;12731;52.182;8.716;2023-07-13T13:32:11;7.38;;;1.40;;
24567;SDS011;12731;52.182;8.716;2023-07-13T13:34:39;5.07;;;1.52;;
24567;SDS011;12731;52.182;8.716;2023-07-13T13:37:12;7.30;;;1.40;;
24567;SDS011;12731;52.182;8.716;2023-07-13T13:39:43;3.33;;;1.48;;
24567;SDS011;12731;52.182;8.716;2023-07-13T13:42:28;2.47;;;1.42;;
24567;SDS011;12731;52.182;8.716;2023-07-13T13:44:55;3.20;;;1.45;;
24567;SDS011;12731;52.182;8.716;2023-07-13T13:47:28;3.28;;;1.50;;
24567;SDS011;12731;52.182;8.716;2023-07-13T13:49:56;2.40;;;1.17;;
24567;SDS011;12731;52.182;8.716;2023-07-13T13:52:23;3.00;;;1.35;;
24567;SDS011;12731;52.182;8.716;2023-07-13T13:54:50;2.00;;;1.20;;
24567;SDS011;12731;52.182;8.716;2023-07-13T13:57:23;4.37;;;1.20;;
24567;SDS011;12731;52.182;8.716;2023-07-13T13:59:51;3.20;;;1.35;;
24567;SDS011;12731;52.182;8.716;2023-07-13T14:02:22;2.47;;;1.60;;
24567;SDS011;12731;52.182;8.716;2023-07-13T14:04:53;2.60;;;1.80;;
24567;SDS011;12731;52.182;8.716;2023-07-13T14:07:21;3.35;;;1.80;;
24567;SDS011;12731;52.182;8.716;2023-07-13T14:09:48;2.53;;;1.77;;
24567;SDS011;12731;52.182;8.716;2023-07-13T14:12:14;1.70;;;1.60;;
24567;SDS011;12731;52.182;8.716;2023-07-13T14:14:41;3.65;;;1.73;;
24567;SDS011;12731;52.182;8.716;2023-07-13T14:17:17;3.75;;;2.00;;
24567;SDS011;12731;52.182;8.716;2023-07-13T14:19:50;4.82;;;1.80;;
24567;SDS011;12731;52.182;8.716;2023-07-13T14:22:17;2.95;;;1.85;;
24567;SDS011;12731;52.182;8.716;2023-07-13T14:24:44;3.05;;;1.85;;
24567;SDS011;12731;52.182;8.716;2023-07-13T14:27:12;3.63;;;1.95;;
24567;SDS011;12731;52.182;8.716;2023-07-13T14:29:38;2.97;;;1.98;;
24567;SDS011;12731;52.182;8.716;2023-07-13T14:32:09;1.88;;;1.55;;
24567;SDS011;12731;52.182;8.716;2023-07-13T14:34:36;2.70;;;1.80;;
24567;SDS011;12731;52.182;8.716;2023-07-13T14:37:09;3.13;;;1.75;;
24567;SDS011;12731;52.182;8.716;2023-07-13T14:42:05;2.72;;;1.80;;
24567;SDS011;12731;52.182;8.716;2023-07-13T14:44:31;2.47;;;1.95;;
24567;SDS011;12731;52.182;8.716;2023-07-13T14:46:58;1.92;;;1.60;;
24567;SDS011;12731;52.182;8.716;2023-07-13T14:52:01;3.85;;;1.90;;
24567;SDS011;12731;52.182;8.716;2023-07-13T14:54:29;2.88;;;1.90;;
24567;SDS011;12731;52.182;8.716;2023-07-13T14:56:56;5.60;;;2.42;;
24567;SDS011;12731;52.182;8.716;2023-07-13T14:59:23;4.20;;;1.83;;
24567;SDS011;12731;52.182;8.716;2023-07-13T15:01:50;2.30;;;1.60;;
24567;SDS011;12731;52.182;8.716;2023-07-13T15:04:17;3.03;;;1.90;;
24567;SDS011;12731;52.182;8.716;2023-07-13T15:06:52;3.47;;;1.80;;
24567;SDS011;12731;52.182;8.716;2023-07-13T15:09:19;3.92;;;1.67;;
24567;SDS011;12731;52.182;8.716;2023-07-13T15:11:46;3.80;;;1.80;;
24567;SDS011;12731;52.182;8.716;2023-07-13T15:14:12;3.10;;;2.00;;
24567;SDS011;12731;52.182;8.716;2023-07-13T15:16:39;3.05;;;2.10;;
24567;SDS011;12731;52.182;8.716;2023-07-13T15:19:07;3.40;;;1.95;;
24567;SDS011;12731;52.182;8.716;2023-07-13T15:21:35;4.20;;;2.13;;
24567;SDS011;12731;52.182;8.716;2023-07-13T15:24:03;2.53;;;2.15;;
24567;SDS011;12731;52.182;8.716;2023-07-13T15:26:30;3.97;;;2.53;;
24567;SDS011;12731;52.182;8.716;2023-07-13T15:28:57;3.38;;;2.80;;
24567;SDS011;12731;52.182;8.716;2023-07-13T15:31:24;2.85;;;2.35;;
24567;SDS011;12731;52.182;8.716;2023-07-13T15:33:52;6.43;;;2.90;;